createdAt,value
2023-02-11T00:01:07.258Z,57.30
2023-02-11T00:03:34.019Z,61.72
2023-02-11T00:06:02.755Z,58.95
2023-02-11T00:08:29.413Z,66.63
2023-02-11T00:10:57.509Z,63.47
2023-02-11T00:13:25.534Z,65.22
2023-02-11T00:15:52.707Z,66.20
2023-02-11T00:18:19.427Z,73.05
2023-02-11T00:20:46.387Z,70.47
2023-02-11T00:23:13.355Z,67.50
2023-02-11T00:25:41.924Z,69.93
2023-02-11T00:28:09.639Z,68.45
2023-02-11T00:30:36.953Z,71.43
2023-02-11T00:33:04.095Z,72.28
2023-02-11T00:35:30.732Z,85.70
2023-02-11T00:37:57.497Z,65.40
2023-02-11T00:40:24.553Z,79.28
2023-02-11T00:42:51.271Z,75.03
2023-02-11T00:45:17.889Z,70.20
2023-02-11T00:47:44.541Z,72.30
2023-02-11T00:50:11.181Z,75.15
2023-02-11T00:52:37.913Z,70.45
2023-02-11T00:55:04.886Z,80.35
2023-02-11T00:57:31.613Z,72.63
2023-02-11T00:59:58.223Z,76.35
2023-02-11T01:02:24.878Z,73.47
2023-02-11T01:04:51.629Z,75.95
2023-02-11T01:07:18.264Z,75.47
2023-02-11T01:09:44.895Z,70.97
2023-02-11T01:12:11.576Z,77.05
2023-02-11T01:14:38.315Z,73.30
2023-02-11T01:17:06.453Z,85.60
2023-02-11T01:19:33.120Z,70.18
2023-02-11T01:21:59.899Z,81.90
2023-02-11T01:24:26.624Z,81.75
2023-02-11T01:26:53.246Z,75.38
2023-02-11T01:29:20.163Z,80.25
2023-02-11T01:31:46.898Z,82.85
2023-02-11T01:34:14.525Z,77.57
2023-02-11T01:36:41.332Z,78.50
2023-02-11T01:39:08.800Z,78.43
2023-02-11T01:41:36.353Z,73.63
2023-02-11T01:44:26.000Z,78.55
2023-02-11T01:49:30.687Z,80.10
2023-02-11T01:52:15.015Z,80.18
2023-02-11T01:55:11.353Z,91.40
2023-02-11T01:57:41.478Z,86.13
2023-02-11T02:00:15.683Z,86.20
2023-02-11T02:03:00.146Z,94.90
2023-02-11T02:05:57.576Z,101.03
2023-02-11T02:08:38.379Z,90.60
2023-02-11T02:11:05.154Z,91.00
2023-02-11T02:13:33.562Z,98.25
2023-02-11T02:16:09.304Z,100.78
2023-02-11T02:19:05.654Z,92.22
2023-02-11T02:21:44.565Z,92.85
2023-02-11T02:24:27.722Z,99.57
2023-02-11T02:27:02.883Z,94.20
2023-02-11T02:29:57.457Z,95.97
2023-02-11T02:32:37.789Z,95.65
2023-02-11T02:35:15.772Z,95.55
2023-02-11T02:37:55.314Z,93.38
2023-02-11T02:40:34.988Z,97.13
2023-02-11T02:45:29.698Z,94.85
2023-02-11T02:47:56.646Z,102.07
2023-02-11T02:50:30.389Z,99.47
2023-02-11T02:53:00.087Z,103.05
2023-02-11T02:58:48.264Z,105.68
2023-02-11T03:01:21.759Z,105.43
2023-02-11T03:03:53.237Z,102.00
2023-02-11T03:06:34.449Z,101.60
2023-02-11T03:09:25.552Z,101.50
2023-02-11T03:11:52.619Z,101.93
2023-02-11T03:14:20.889Z,98.22
2023-02-11T03:16:50.185Z,104.20
2023-02-11T03:19:23.801Z,99.55
2023-02-11T03:21:52.223Z,103.90
2023-02-11T03:24:25.770Z,103.40
2023-02-11T03:26:55.885Z,100.53
2023-02-11T03:29:34.826Z,100.97
2023-02-11T03:32:16.617Z,97.63
2023-02-11T03:34:58.505Z,98.80
2023-02-11T03:37:57.718Z,101.55
2023-02-11T03:40:32.540Z,97.75
2023-02-11T03:43:17.762Z,108.07
2023-02-11T03:45:47.170Z,96.60
2023-02-11T03:48:25.840Z,93.15
2023-02-11T03:50:54.112Z,99.27
2023-02-11T03:53:22.810Z,103.05
2023-02-11T03:55:51.409Z,91.70
2023-02-11T03:58:18.326Z,100.80
2023-02-11T04:00:45.279Z,99.13
2023-02-11T04:03:13.084Z,107.45
2023-02-11T04:05:40.644Z,104.68
2023-02-11T04:08:07.749Z,102.93
2023-02-11T04:10:34.352Z,113.07
2023-02-11T04:13:01.033Z,106.20
2023-02-11T04:15:27.697Z,102.25
2023-02-11T04:17:54.408Z,103.25
2023-02-11T04:20:21.269Z,100.80
2023-02-11T04:22:47.866Z,106.95
2023-02-11T04:25:14.491Z,109.93
2023-02-11T04:27:41.069Z,109.65
2023-02-11T04:30:10.576Z,109.07
2023-02-11T04:32:37.199Z,112.70
2023-02-11T04:35:04.187Z,115.60
2023-02-11T04:37:30.838Z,112.88
2023-02-11T04:39:57.600Z,105.80
2023-02-11T04:42:24.559Z,111.97
2023-02-11T04:44:51.171Z,112.63
2023-02-11T04:47:17.815Z,117.65
2023-02-11T04:49:44.660Z,122.75
2023-02-11T04:52:11.341Z,110.22
2023-02-11T04:54:38.053Z,110.97
2023-02-11T04:57:04.817Z,111.50
2023-02-11T04:59:31.466Z,107.65
2023-02-11T05:01:58.212Z,105.20
2023-02-11T05:04:24.886Z,120.82
2023-02-11T05:06:51.584Z,114.55
2023-02-11T05:09:18.588Z,114.10
2023-02-11T05:11:45.174Z,116.05
2023-02-11T05:14:11.835Z,109.43
2023-02-11T05:16:38.548Z,105.18
2023-02-11T05:19:05.346Z,106.43
2023-02-11T05:21:32.012Z,102.05
2023-02-11T05:23:58.697Z,104.18
2023-02-11T05:26:26.409Z,116.68
2023-02-11T05:28:53.139Z,112.60
2023-02-11T05:31:19.778Z,118.97
2023-02-11T05:33:46.386Z,106.63
2023-02-11T05:36:13.802Z,111.63
2023-02-11T05:38:42.366Z,118.00
2023-02-11T05:41:10.347Z,113.72
2023-02-11T05:43:37.141Z,105.60
2023-02-11T05:46:04.792Z,104.97
2023-02-11T05:48:31.848Z,103.75
2023-02-11T05:50:58.545Z,106.57
2023-02-11T05:53:25.221Z,105.30
2023-02-11T05:55:52.106Z,113.78
2023-02-11T05:58:18.968Z,111.18
2023-02-11T06:00:45.649Z,104.57
2023-02-11T06:03:12.244Z,112.93
2023-02-11T06:05:38.972Z,109.72
2023-02-11T06:08:05.638Z,114.07
2023-02-11T06:10:32.255Z,108.28
2023-02-11T06:12:58.846Z,103.32
2023-02-11T06:15:25.485Z,104.10
2023-02-11T06:17:52.603Z,98.88
2023-02-11T06:20:19.424Z,99.03
2023-02-11T06:22:46.349Z,103.18
2023-02-11T06:25:13.649Z,108.82
2023-02-11T06:27:40.337Z,93.97
2023-02-11T06:30:08.206Z,106.25
2023-02-11T06:32:43.829Z,106.70
2023-02-11T06:35:12.350Z,112.53
2023-02-11T06:37:40.119Z,109.78
2023-02-11T06:40:07.025Z,112.85
2023-02-11T06:42:34.555Z,115.30
2023-02-11T06:45:01.220Z,114.10
2023-02-11T06:47:27.845Z,112.00
2023-02-11T06:49:54.442Z,114.47
2023-02-11T06:52:21.185Z,107.88
2023-02-11T06:54:47.810Z,113.80
2023-02-11T06:57:14.486Z,110.60
2023-02-11T06:59:41.304Z,114.50
2023-02-11T07:02:10.471Z,114.43
2023-02-11T07:04:37.155Z,113.55
2023-02-11T07:07:03.913Z,117.00
2023-02-11T07:09:30.508Z,119.53
2023-02-11T07:11:57.134Z,118.88
2023-02-11T07:14:23.818Z,115.10
2023-02-11T07:16:50.445Z,133.18
2023-02-11T07:19:17.311Z,111.18
2023-02-11T07:21:43.932Z,103.90
2023-02-11T07:24:11.488Z,111.47
2023-02-11T07:26:38.701Z,101.45
2023-02-11T07:29:05.417Z,113.35
2023-02-11T07:31:32.994Z,106.65
2023-02-11T07:34:01.580Z,107.55
2023-02-11T07:36:29.753Z,104.35
2023-02-11T07:38:56.429Z,101.50
2023-02-11T07:41:25.142Z,113.22
2023-02-11T07:43:51.861Z,103.15
2023-02-11T07:46:21.240Z,100.30
2023-02-11T07:48:48.387Z,99.15
2023-02-11T07:51:21.289Z,103.80
2023-02-11T07:53:47.956Z,106.40
2023-02-11T07:56:16.312Z,107.03
2023-02-11T07:58:43.385Z,97.85
2023-02-11T08:01:18.333Z,96.57
2023-02-11T08:03:45.805Z,99.35
2023-02-11T08:06:16.529Z,101.03
2023-02-11T08:08:43.451Z,105.10
2023-02-11T08:11:15.377Z,97.22
2023-02-11T08:13:42.525Z,94.72
2023-02-11T08:16:09.851Z,95.38
2023-02-11T08:18:36.917Z,87.88
2023-02-11T08:21:08.058Z,89.03
2023-02-11T08:23:38.531Z,91.10
2023-02-11T08:26:08.132Z,92.72
2023-02-11T08:28:39.833Z,89.93
2023-02-11T08:31:08.344Z,94.38
2023-02-11T08:33:35.540Z,86.75
2023-02-11T08:36:07.685Z,83.82
2023-02-11T08:38:34.416Z,80.93
2023-02-11T08:41:01.263Z,89.90
2023-02-11T08:43:27.884Z,91.07
2023-02-11T08:45:54.643Z,81.72
2023-02-11T08:48:21.269Z,84.43
2023-02-11T08:50:47.871Z,89.90
2023-02-11T08:53:14.451Z,86.97
2023-02-11T08:55:41.107Z,85.55
2023-02-11T08:58:07.731Z,87.30
2023-02-11T09:00:34.341Z,86.25
2023-02-11T09:03:01.409Z,86.22
2023-02-11T09:05:28.066Z,91.32
2023-02-11T09:07:54.631Z,80.78
2023-02-11T09:10:21.263Z,78.45
2023-02-11T09:12:47.901Z,91.72
2023-02-11T09:15:14.517Z,81.93
2023-02-11T09:17:41.125Z,85.47
2023-02-11T09:20:10.695Z,83.00
2023-02-11T09:25:04.042Z,86.10
2023-02-11T09:27:30.621Z,80.00
2023-02-11T09:29:57.311Z,79.50
2023-02-11T09:32:24.048Z,76.70
2023-02-11T09:34:50.794Z,83.15
2023-02-11T09:37:17.416Z,78.20
2023-02-11T09:39:46.122Z,78.65
2023-02-11T09:42:43.783Z,83.50
2023-02-11T09:45:25.988Z,74.07
2023-02-11T09:48:10.501Z,84.03
2023-02-11T09:50:41.779Z,83.00
2023-02-11T09:53:23.392Z,77.20
2023-02-11T09:55:55.716Z,88.18
2023-02-11T09:58:34.579Z,77.30
2023-02-11T10:01:12.700Z,75.13
2023-02-11T10:03:42.090Z,74.85
2023-02-11T10:06:20.982Z,69.60
2023-02-11T10:09:28.047Z,81.22
2023-02-11T10:12:19.459Z,73.20
2023-02-11T10:15:16.814Z,78.63
2023-02-11T10:18:12.305Z,67.50
2023-02-11T10:20:50.859Z,70.43
2023-02-11T10:23:25.757Z,68.60
2023-02-11T10:25:54.517Z,70.35
2023-02-11T10:28:29.770Z,74.73
2023-02-11T10:31:08.617Z,74.63
2023-02-11T10:33:56.440Z,76.25
2023-02-11T10:36:30.776Z,78.43
2023-02-11T10:39:02.548Z,78.65
2023-02-11T10:41:36.753Z,73.32
2023-02-11T10:44:07.146Z,75.22
2023-02-11T10:46:38.084Z,69.82
2023-02-11T10:49:04.704Z,74.70
2023-02-11T10:51:34.267Z,81.22
2023-02-11T10:54:04.068Z,71.47
2023-02-11T10:56:33.863Z,75.55
2023-02-11T10:59:04.507Z,76.78
2023-02-11T11:01:45.128Z,73.80
2023-02-11T11:04:30.017Z,72.82
2023-02-11T11:06:58.915Z,75.82
2023-02-11T11:09:33.082Z,71.85
2023-02-11T11:11:59.781Z,78.28
2023-02-11T11:14:28.990Z,67.72
2023-02-11T11:16:55.847Z,62.22
2023-02-11T11:19:24.766Z,71.45
2023-02-11T11:21:53.665Z,72.22
2023-02-11T11:24:29.377Z,69.53
2023-02-11T11:27:01.450Z,76.30
2023-02-11T11:29:38.503Z,78.85
2023-02-11T11:32:20.672Z,77.50
2023-02-11T11:34:56.789Z,80.40
2023-02-11T11:37:31.707Z,70.28
2023-02-11T11:40:09.569Z,74.40
2023-02-11T11:42:38.725Z,72.97
2023-02-11T11:45:20.090Z,75.47
2023-02-11T11:47:52.565Z,74.50
2023-02-11T11:50:43.338Z,76.68
2023-02-11T11:53:21.207Z,79.88
2023-02-11T11:55:59.383Z,75.15
2023-02-11T11:58:29.186Z,72.28
2023-02-11T12:01:20.483Z,73.20
2023-02-11T12:04:08.851Z,71.22
2023-02-11T12:06:55.662Z,70.22
2023-02-11T12:09:46.667Z,64.55
2023-02-11T12:12:41.173Z,64.05
2023-02-11T12:15:28.808Z,69.57
2023-02-11T12:18:17.843Z,68.70
2023-02-11T12:21:09.032Z,69.35
2023-02-11T12:23:47.395Z,64.40
2023-02-11T12:26:20.468Z,68.18
2023-02-11T12:29:05.726Z,74.05
2023-02-11T12:31:47.017Z,72.32
2023-02-11T12:34:56.741Z,66.20
2023-02-11T12:40:02.065Z,61.38
2023-02-11T12:43:08.808Z,63.13
2023-02-11T12:45:51.985Z,60.47
2023-02-11T12:48:33.593Z,62.15
2023-02-11T12:51:16.450Z,56.92
2023-02-11T12:53:48.664Z,66.63
2023-02-11T12:56:26.416Z,66.68
2023-02-11T12:58:56.105Z,66.45
2023-02-11T13:04:23.908Z,63.10
2023-02-11T13:06:58.924Z,65.07
2023-02-11T13:09:32.434Z,61.67
2023-02-11T13:12:23.659Z,61.85
2023-02-11T13:14:54.091Z,64.53
2023-02-11T13:17:36.093Z,66.82
2023-02-11T13:20:52.154Z,63.80
2023-02-11T13:23:31.517Z,71.22
2023-02-11T13:26:09.948Z,66.78
2023-02-11T13:28:50.391Z,62.03
2023-02-11T13:31:20.183Z,63.30
2023-02-11T13:33:49.585Z,63.20
2023-02-11T13:36:22.177Z,68.10
2023-02-11T13:39:04.377Z,57.92
2023-02-11T13:41:38.303Z,57.10
2023-02-11T13:44:19.195Z,63.35
2023-02-11T13:47:04.970Z,71.53
2023-02-11T13:49:33.433Z,66.50
2023-02-11T13:52:03.341Z,62.75
2023-02-11T13:54:38.995Z,68.68
2023-02-11T13:57:19.702Z,58.80
2023-02-11T13:59:52.344Z,66.20
2023-02-11T14:02:50.296Z,62.78
2023-02-11T14:05:49.014Z,65.57
2023-02-11T14:08:40.187Z,68.23
2023-02-11T14:11:29.901Z,60.28
2023-02-11T14:17:01.350Z,73.30
2023-02-11T14:22:06.336Z,61.45
2023-02-11T14:24:32.912Z,75.80
2023-02-11T14:27:09.874Z,71.40
2023-02-11T14:29:46.909Z,67.75
2023-02-11T14:32:27.244Z,65.30
2023-02-11T14:35:07.787Z,68.53
2023-02-11T14:38:12.580Z,62.45
2023-02-11T14:41:01.865Z,66.28
2023-02-11T14:43:35.083Z,61.25
2023-02-11T14:46:02.949Z,62.65
2023-02-11T14:48:35.093Z,57.97
2023-02-11T14:51:14.689Z,61.85
2023-02-11T14:56:26.289Z,60.63
2023-02-11T14:58:54.835Z,59.50
2023-02-11T15:01:46.955Z,54.72
2023-02-11T15:04:26.201Z,58.00
2023-02-11T15:06:55.039Z,56.53
2023-02-11T15:09:37.166Z,50.60
2023-02-11T15:12:04.118Z,50.30
2023-02-11T15:14:33.679Z,49.33
2023-02-11T15:17:04.253Z,49.15
2023-02-11T15:19:39.909Z,51.45
2023-02-11T15:22:18.401Z,51.03
2023-02-11T15:24:45.530Z,53.65
2023-02-11T15:27:15.450Z,48.50
2023-02-11T15:29:49.122Z,46.45
2023-02-11T15:32:18.514Z,45.15
2023-02-11T15:34:46.923Z,48.47
2023-02-11T15:37:22.248Z,43.42
2023-02-11T15:39:49.328Z,41.05
2023-02-11T15:42:17.124Z,41.00
2023-02-11T15:44:43.966Z,40.88
2023-02-11T15:47:18.673Z,37.70
2023-02-11T15:49:46.812Z,43.47
2023-02-11T15:52:21.503Z,40.83
2023-02-11T15:54:49.308Z,40.17
2023-02-11T15:57:17.759Z,43.65
2023-02-11T15:59:51.970Z,41.10
2023-02-11T16:02:22.127Z,38.53
2023-02-11T16:04:51.793Z,42.78
2023-02-11T16:10:18.155Z,40.85
2023-02-11T16:13:18.757Z,37.60
2023-02-11T16:15:56.734Z,39.30
2023-02-11T16:18:37.696Z,38.05
2023-02-11T16:21:15.825Z,38.78
2023-02-11T16:23:43.274Z,47.88
2023-02-11T16:26:27.261Z,44.55
2023-02-11T16:29:01.614Z,37.72
2023-02-11T16:31:37.276Z,40.47
2023-02-11T16:34:19.828Z,42.80
2023-02-11T16:36:47.402Z,42.08
2023-02-11T16:39:14.461Z,41.83
2023-02-11T16:41:41.198Z,43.65
2023-02-11T16:44:07.940Z,46.88
2023-02-11T16:46:36.344Z,47.47
2023-02-11T16:49:18.052Z,39.78
2023-02-11T16:51:46.549Z,42.08
2023-02-11T16:54:15.151Z,43.97
2023-02-11T16:56:42.557Z,46.58
2023-02-11T16:59:09.765Z,49.72
2023-02-11T17:01:38.974Z,42.15
2023-02-11T17:04:06.985Z,40.92
2023-02-11T17:06:34.894Z,38.60
2023-02-11T17:09:01.684Z,45.15
2023-02-11T17:11:28.352Z,48.30
2023-02-11T17:13:55.138Z,42.85
2023-02-11T17:16:23.314Z,45.10
2023-02-11T17:18:50.457Z,45.50
2023-02-11T17:21:17.231Z,41.70
2023-02-11T17:23:45.788Z,44.05
2023-02-11T17:26:12.454Z,54.80
2023-02-11T17:28:39.071Z,36.65
2023-02-11T17:31:09.783Z,48.80
2023-02-11T17:33:37.798Z,45.50
2023-02-11T17:36:09.518Z,46.53
2023-02-11T17:38:37.977Z,38.47
2023-02-11T17:41:05.451Z,49.25
2023-02-11T17:43:32.196Z,42.95
2023-02-11T17:45:58.828Z,47.50
2023-02-11T17:48:25.696Z,49.97
2023-02-11T17:50:52.420Z,50.67
2023-02-11T17:53:18.992Z,54.60
2023-02-11T17:55:45.702Z,46.63
2023-02-11T17:58:12.334Z,51.80
2023-02-11T18:00:39.087Z,51.53
2023-02-11T18:03:05.657Z,41.65
2023-02-11T18:05:36.970Z,50.40
2023-02-11T18:08:07.906Z,48.50
2023-02-11T18:10:35.603Z,44.67
2023-02-11T18:13:02.401Z,49.22
2023-02-11T18:15:29.067Z,47.40
2023-02-11T18:17:55.959Z,55.75
2023-02-11T18:20:22.745Z,45.60
2023-02-11T18:22:49.499Z,52.28
2023-02-11T18:25:16.424Z,52.40
2023-02-11T18:27:43.365Z,52.72
2023-02-11T18:30:16.977Z,49.42
2023-02-11T18:32:43.672Z,54.95
2023-02-11T18:35:14.849Z,52.78
2023-02-11T18:37:42.721Z,50.70
2023-02-11T18:40:11.447Z,57.28
2023-02-11T18:42:38.872Z,60.50
2023-02-11T18:45:09.368Z,54.03
2023-02-11T18:47:39.617Z,55.55
2023-02-11T18:50:08.204Z,50.83
2023-02-11T18:52:38.108Z,56.95
2023-02-11T18:55:06.307Z,57.30
2023-02-11T18:57:32.995Z,57.22
2023-02-11T18:59:59.786Z,62.03
2023-02-11T19:02:26.897Z,53.58
2023-02-11T19:04:53.517Z,52.88
2023-02-11T19:07:20.156Z,51.38
2023-02-11T19:09:46.873Z,58.33
2023-02-11T19:12:13.495Z,51.45
2023-02-11T19:14:40.159Z,52.67
2023-02-11T19:17:08.065Z,53.97
2023-02-11T19:19:36.433Z,46.10
2023-02-11T19:22:08.497Z,48.05
2023-02-11T19:24:37.210Z,46.03
2023-02-11T19:27:04.537Z,47.38
2023-02-11T19:29:33.474Z,54.35
2023-02-11T19:32:00.176Z,48.75
2023-02-11T19:34:26.912Z,46.78
2023-02-11T19:36:54.291Z,45.63
2023-02-11T19:39:21.341Z,44.35
2023-02-11T19:41:48.043Z,45.72
2023-02-11T19:44:14.736Z,57.20
2023-02-11T19:46:41.556Z,50.10
2023-02-11T19:49:09.810Z,60.97
2023-02-11T19:51:39.157Z,57.90
2023-02-11T19:54:07.240Z,56.17
2023-02-11T19:56:34.269Z,64.03
2023-02-11T19:59:03.522Z,75.10
2023-02-11T20:01:30.320Z,84.88
2023-02-11T20:03:57.708Z,79.25
2023-02-11T20:06:30.278Z,66.13
2023-02-11T20:09:00.123Z,64.88
2023-02-11T20:11:29.066Z,47.63
2023-02-11T20:13:56.883Z,50.95
2023-02-11T20:16:40.643Z,60.38
2023-02-11T20:19:07.797Z,62.30
2023-02-11T20:21:34.436Z,57.72
2023-02-11T20:24:01.225Z,63.08
2023-02-11T20:26:30.124Z,65.93
2023-02-11T20:28:58.819Z,57.40
2023-02-11T20:31:26.689Z,47.55
2023-02-11T20:33:53.441Z,41.90
2023-02-11T20:36:23.612Z,43.15
2023-02-11T20:38:51.357Z,80.20
2023-02-11T20:41:20.747Z,60.40
2023-02-11T20:43:51.889Z,45.70
2023-02-11T20:46:21.514Z,46.63
2023-02-11T20:51:17.710Z,64.50
2023-02-11T20:53:48.726Z,61.67
2023-02-11T20:56:16.150Z,55.97
2023-02-11T20:58:43.191Z,66.00
2023-02-11T21:01:13.961Z,65.25
2023-02-11T21:03:43.672Z,56.42
2023-02-11T21:08:38.302Z,48.80
2023-02-11T21:11:09.394Z,47.75
2023-02-11T21:13:37.407Z,45.15
2023-02-11T21:16:04.774Z,50.22
2023-02-11T21:18:31.673Z,55.85
2023-02-11T21:20:58.410Z,49.80
2023-02-11T21:23:25.394Z,53.47
2023-02-11T21:25:53.785Z,44.78
2023-02-11T21:28:26.040Z,46.35
2023-02-11T21:30:55.573Z,51.17
2023-02-11T21:33:23.705Z,54.72
2023-02-11T21:35:54.718Z,57.67
2023-02-11T21:38:22.140Z,51.67
2023-02-11T21:40:48.810Z,55.08
2023-02-11T21:43:15.683Z,50.67
2023-02-11T21:45:43.980Z,59.28
2023-02-11T21:48:11.196Z,48.72
2023-02-11T21:50:45.812Z,60.38
2023-02-11T21:53:13.637Z,61.83
2023-02-11T21:55:41.094Z,58.17
2023-02-11T21:58:08.421Z,55.70
2023-02-11T22:00:35.437Z,58.47
2023-02-11T22:03:02.203Z,53.75
2023-02-11T22:05:28.889Z,49.50
2023-02-11T22:07:55.677Z,56.95
2023-02-11T22:10:22.600Z,62.13
2023-02-11T22:12:49.353Z,52.53
2023-02-11T22:15:16.140Z,63.13
2023-02-11T22:17:42.732Z,59.53
2023-02-11T22:20:10.177Z,93.35
2023-02-11T22:22:36.892Z,81.55
2023-02-11T22:25:04.039Z,48.60
2023-02-11T22:27:30.841Z,52.58
2023-02-11T22:29:57.505Z,54.63
2023-02-11T22:32:24.197Z,52.75
2023-02-11T22:34:53.202Z,52.40
2023-02-11T22:37:20.349Z,54.97
2023-02-11T22:39:47.069Z,58.50
2023-02-11T22:42:13.671Z,50.22
2023-02-11T22:44:40.265Z,53.05
2023-02-11T22:47:07.082Z,53.58
2023-02-11T22:49:33.743Z,48.67
2023-02-11T22:52:00.458Z,60.75
2023-02-11T22:54:27.484Z,59.28
2023-02-11T22:56:54.163Z,61.78
2023-02-11T22:59:20.809Z,58.42
2023-02-11T23:01:47.877Z,51.03
2023-02-11T23:04:15.891Z,48.28
2023-02-11T23:06:42.852Z,54.53
2023-02-11T23:09:12.407Z,49.47
2023-02-11T23:14:05.902Z,51.67
2023-02-11T23:16:34.089Z,52.45
2023-02-11T23:19:03.547Z,53.70
2023-02-11T23:21:32.100Z,45.10
2023-02-11T23:24:04.993Z,46.80
2023-02-11T23:26:32.054Z,55.35
2023-02-11T23:28:59.622Z,61.08
2023-02-11T23:31:34.129Z,51.00
2023-02-11T23:34:01.451Z,58.88
2023-02-11T23:36:28.343Z,61.40
2023-02-11T23:38:55.220Z,60.00
2023-02-11T23:41:22.721Z,61.30
2023-02-11T23:43:54.224Z,60.50
2023-02-11T23:46:22.182Z,69.57
2023-02-11T23:48:49.653Z,68.28
2023-02-11T23:51:16.734Z,70.68
2023-02-11T23:53:45.796Z,79.93
2023-02-11T23:56:19.057Z,75.05
2023-02-11T23:58:48.979Z,71.20
